Pescana Vaillant — FWXU — position and weather

sailwx.info

Track history (hours):
 
Tides and Currents Weather Stations Pressure Air Temp Water Temp Dewpoint Dewpoint Depression Visibility Wind Speed Wind Dir Waves Ship Positions

Pescana Vaillant

Last reported at 2018-Jun-08 05:49 UTC. Time now 2018-Jun-20 08:52 UTC.
Position S 22°21' E 166°11'.
Warning: this ship's position is 12 days out of date.

Length 30 m; draft 3 m.

Type: Fishing. MMSI: 540005000.

Date/timePositionNaut miles runAvg speedWind from/ knotsBaromVisibWave heightAir tempDewpointWater temp
2018-Jun-08 05:49S 22°21' E 166°11'3 6.6
2018-Jun-08 05:22S 22°22' E 166°14'2 6.1
2018-Jun-08 05:00S 22°21' E 166°16'3 6.3
2018-Jun-08 04:30S 22°18' E 166°18'3 6.2
2018-Jun-08 04:00S 22°16' E 166°21'3 6.2
2018-Jun-08 03:30S 22°15' E 166°24'2 4.8
2018-Jun-08 03:00S 22°16' E 166°26'0 0.0
2018-Jun-06 22:30S 22°16' E 166°26'  
2018-Jun-02 20:03S 22°16' E 166°25'0 1.1
2018-Jun-02 20:00S 22°16' E 166°26'1 2.9
2018-Jun-02 19:30S 22°15' E 166°24'3 6.3
2018-Jun-02 19:00S 22°14' E 166°21'4 7.4
2018-Jun-02 18:29S 22°13' E 166°17'  
Track history (hours):
 
Tides and Currents Weather Stations Pressure Air Temp Water Temp Dewpoint Dewpoint Depression Visibility Wind Speed Wind Dir Waves Ship Positions

Pescana Vaillant

Last reported at 2018-Jun-08 05:49 UTC. Time now 2018-Jun-20 08:52 UTC.
Position S 22°21' E 166°11'.
Warning: this ship's position is 12 days out of date.

Length 30 m; draft 3 m.

Type: Fishing. MMSI: 540005000.

Date/timePositionNaut miles runAvg speedWind from/ knotsBaromVisibWave heightAir tempDewpointWater temp
2018-Jun-08 05:49S 22°21' E 166°11'3 6.6
2018-Jun-08 05:22S 22°22' E 166°14'2 6.1
2018-Jun-08 05:00S 22°21' E 166°16'3 6.3
2018-Jun-08 04:30S 22°18' E 166°18'3 6.2
2018-Jun-08 04:00S 22°16' E 166°21'3 6.2
2018-Jun-08 03:30S 22°15' E 166°24'2 4.8
2018-Jun-08 03:00S 22°16' E 166°26'0 0.0
2018-Jun-06 22:30S 22°16' E 166°26'  
2018-Jun-02 20:03S 22°16' E 166°25'0 1.1
2018-Jun-02 20:00S 22°16' E 166°26'1 2.9
2018-Jun-02 19:30S 22°15' E 166°24'3 6.3
2018-Jun-02 19:00S 22°14' E 166°21'4 7.4
2018-Jun-02 18:29S 22°13' E 166°17'  

Dump ship's entire track history